sensor_id;sensor_type;location;lat;lon;timestamp;P1;durP1;ratioP1;P2;durP2;ratioP2
42006;SDS011;27696;42.704;23.304;2023-03-13T00:01:22;6.47;;;4.90;;
42006;SDS011;27696;42.704;23.304;2023-03-13T00:03:49;6.63;;;5.68;;
42006;SDS011;27696;42.704;23.304;2023-03-13T00:06:15;7.20;;;5.03;;
42006;SDS011;27696;42.704;23.304;2023-03-13T00:08:41;6.70;;;5.57;;
42006;SDS011;27696;42.704;23.304;2023-03-13T00:11:08;9.02;;;5.55;;
42006;SDS011;27696;42.704;23.304;2023-03-13T00:13:34;6.63;;;5.10;;
42006;SDS011;27696;42.704;23.304;2023-03-13T00:16:00;6.70;;;5.65;;
42006;SDS011;27696;42.704;23.304;2023-03-13T00:18:30;7.00;;;5.63;;
42006;SDS011;27696;42.704;23.304;2023-03-13T00:21:03;7.88;;;5.85;;
42006;SDS011;27696;42.704;23.304;2023-03-13T00:23:30;6.18;;;5.43;;
42006;SDS011;27696;42.704;23.304;2023-03-13T00:25:57;7.60;;;5.50;;
42006;SDS011;27696;42.704;23.304;2023-03-13T00:28:23;7.07;;;5.63;;
42006;SDS011;27696;42.704;23.304;2023-03-13T00:30:48;6.22;;;5.32;;
42006;SDS011;27696;42.704;23.304;2023-03-13T00:33:14;6.93;;;5.45;;
42006;SDS011;27696;42.704;23.304;2023-03-13T00:35:39;6.93;;;5.22;;
42006;SDS011;27696;42.704;23.304;2023-03-13T00:38:05;7.15;;;5.72;;
42006;SDS011;27696;42.704;23.304;2023-03-13T00:40:30;6.95;;;5.25;;
42006;SDS011;27696;42.704;23.304;2023-03-13T00:42:55;7.10;;;5.70;;
42006;SDS011;27696;42.704;23.304;2023-03-13T00:45:21;6.47;;;5.72;;
42006;SDS011;27696;42.704;23.304;2023-03-13T00:47:46;7.40;;;6.15;;
42006;SDS011;27696;42.704;23.304;2023-03-13T00:50:14;6.13;;;5.53;;
42006;SDS011;27696;42.704;23.304;2023-03-13T00:52:39;8.18;;;5.25;;
42006;SDS011;27696;42.704;23.304;2023-03-13T00:55:05;6.55;;;5.88;;
42006;SDS011;27696;42.704;23.304;2023-03-13T00:57:31;6.88;;;5.40;;
42006;SDS011;27696;42.704;23.304;2023-03-13T00:59:56;7.82;;;5.80;;
42006;SDS011;27696;42.704;23.304;2023-03-13T01:02:22;5.95;;;5.28;;
42006;SDS011;27696;42.704;23.304;2023-03-13T01:04:47;6.05;;;4.95;;
42006;SDS011;27696;42.704;23.304;2023-03-13T01:07:13;10.32;;;5.93;;
42006;SDS011;27696;42.704;23.304;2023-03-13T01:09:38;8.35;;;5.75;;
42006;SDS011;27696;42.704;23.304;2023-03-13T01:12:03;6.65;;;5.90;;
42006;SDS011;27696;42.704;23.304;2023-03-13T01:14:29;8.77;;;5.80;;
42006;SDS011;27696;42.704;23.304;2023-03-13T01:16:54;6.97;;;5.18;;
42006;SDS011;27696;42.704;23.304;2023-03-13T01:19:20;9.43;;;5.85;;
42006;SDS011;27696;42.704;23.304;2023-03-13T01:21:45;6.75;;;5.40;;
42006;SDS011;27696;42.704;23.304;2023-03-13T01:24:11;6.57;;;5.30;;
42006;SDS011;27696;42.704;23.304;2023-03-13T01:26:37;7.07;;;5.28;;
42006;SDS011;27696;42.704;23.304;2023-03-13T01:29:02;6.90;;;5.15;;
42006;SDS011;27696;42.704;23.304;2023-03-13T01:31:29;7.45;;;5.22;;
42006;SDS011;27696;42.704;23.304;2023-03-13T01:33:59;6.68;;;5.10;;
42006;SDS011;27696;42.704;23.304;2023-03-13T01:36:26;6.72;;;5.10;;
42006;SDS011;27696;42.704;23.304;2023-03-13T01:38:52;5.90;;;4.97;;
42006;SDS011;27696;42.704;23.304;2023-03-13T01:41:20;7.13;;;5.50;;
42006;SDS011;27696;42.704;23.304;2023-03-13T01:43:46;5.78;;;4.57;;
42006;SDS011;27696;42.704;23.304;2023-03-13T01:51:33;7.03;;;5.60;;
42006;SDS011;27696;42.704;23.304;2023-03-13T01:56:31;6.13;;;5.15;;
42006;SDS011;27696;42.704;23.304;2023-03-13T01:59:01;6.18;;;5.57;;
42006;SDS011;27696;42.704;23.304;2023-03-13T02:01:27;7.57;;;5.22;;
42006;SDS011;27696;42.704;23.304;2023-03-13T02:03:53;7.70;;;5.95;;
42006;SDS011;27696;42.704;23.304;2023-03-13T02:06:18;5.32;;;4.82;;
42006;SDS011;27696;42.704;23.304;2023-03-13T02:08:46;6.35;;;5.25;;
42006;SDS011;27696;42.704;23.304;2023-03-13T02:11:18;6.53;;;5.38;;
42006;SDS011;27696;42.704;23.304;2023-03-13T02:13:45;6.82;;;5.00;;
42006;SDS011;27696;42.704;23.304;2023-03-13T02:16:12;6.38;;;5.00;;
42006;SDS011;27696;42.704;23.304;2023-03-13T02:18:37;6.43;;;5.45;;
42006;SDS011;27696;42.704;23.304;2023-03-13T02:21:12;6.63;;;5.15;;
42006;SDS011;27696;42.704;23.304;2023-03-13T02:23:58;6.53;;;5.47;;
42006;SDS011;27696;42.704;23.304;2023-03-13T02:26:27;14.03;;;6.23;;
42006;SDS011;27696;42.704;23.304;2023-03-13T02:28:53;7.15;;;5.60;;
42006;SDS011;27696;42.704;23.304;2023-03-13T02:31:18;9.02;;;5.93;;
42006;SDS011;27696;42.704;23.304;2023-03-13T02:33:44;7.18;;;6.10;;
42006;SDS011;27696;42.704;23.304;2023-03-13T02:36:10;7.78;;;5.85;;
42006;SDS011;27696;42.704;23.304;2023-03-13T02:38:50;7.50;;;6.47;;
42006;SDS011;27696;42.704;23.304;2023-03-13T02:41:20;10.20;;;7.47;;
42006;SDS011;27696;42.704;23.304;2023-03-13T02:43:45;8.73;;;6.72;;
42006;SDS011;27696;42.704;23.304;2023-03-13T02:46:12;9.88;;;7.10;;
42006;SDS011;27696;42.704;23.304;2023-03-13T02:48:43;9.77;;;7.75;;
42006;SDS011;27696;42.704;23.304;2023-03-13T02:51:12;11.68;;;8.18;;
42006;SDS011;27696;42.704;23.304;2023-03-13T02:53:41;13.18;;;7.97;;
42006;SDS011;27696;42.704;23.304;2023-03-13T02:56:07;13.15;;;8.15;;
42006;SDS011;27696;42.704;23.304;2023-03-13T02:58:39;12.73;;;8.57;;
42006;SDS011;27696;42.704;23.304;2023-03-13T03:01:06;13.05;;;8.93;;
42006;SDS011;27696;42.704;23.304;2023-03-13T03:03:35;10.68;;;8.18;;
42006;SDS011;27696;42.704;23.304;2023-03-13T03:06:01;16.30;;;8.93;;
42006;SDS011;27696;42.704;23.304;2023-03-13T03:08:27;12.85;;;8.90;;
42006;SDS011;27696;42.704;23.304;2023-03-13T03:10:53;15.13;;;8.80;;
42006;SDS011;27696;42.704;23.304;2023-03-13T03:13:18;11.65;;;7.35;;
42006;SDS011;27696;42.704;23.304;2023-03-13T03:15:44;9.75;;;8.20;;
42006;SDS011;27696;42.704;23.304;2023-03-13T03:18:09;10.43;;;8.13;;
42006;SDS011;27696;42.704;23.304;2023-03-13T03:20:35;11.63;;;8.80;;
42006;SDS011;27696;42.704;23.304;2023-03-13T03:23:00;11.70;;;7.75;;
42006;SDS011;27696;42.704;23.304;2023-03-13T03:25:25;11.15;;;7.57;;
42006;SDS011;27696;42.704;23.304;2023-03-13T03:27:51;10.02;;;7.90;;
42006;SDS011;27696;42.704;23.304;2023-03-13T03:30:17;14.02;;;8.30;;
42006;SDS011;27696;42.704;23.304;2023-03-13T03:32:43;11.18;;;8.45;;
42006;SDS011;27696;42.704;23.304;2023-03-13T03:35:08;11.10;;;8.10;;
42006;SDS011;27696;42.704;23.304;2023-03-13T03:37:33;10.07;;;7.90;;
42006;SDS011;27696;42.704;23.304;2023-03-13T03:39:59;12.05;;;8.68;;
42006;SDS011;27696;42.704;23.304;2023-03-13T03:42:24;11.45;;;8.52;;
42006;SDS011;27696;42.704;23.304;2023-03-13T03:44:50;10.35;;;8.07;;
42006;SDS011;27696;42.704;23.304;2023-03-13T03:47:15;10.13;;;8.27;;
42006;SDS011;27696;42.704;23.304;2023-03-13T03:49:41;10.75;;;8.52;;
42006;SDS011;27696;42.704;23.304;2023-03-13T03:52:06;13.20;;;9.20;;
42006;SDS011;27696;42.704;23.304;2023-03-13T03:54:32;12.98;;;9.48;;
42006;SDS011;27696;42.704;23.304;2023-03-13T03:56:57;13.25;;;9.65;;
42006;SDS011;27696;42.704;23.304;2023-03-13T03:59:22;12.18;;;9.35;;
42006;SDS011;27696;42.704;23.304;2023-03-13T04:01:48;14.10;;;9.90;;
42006;SDS011;27696;42.704;23.304;2023-03-13T04:04:13;12.82;;;9.60;;
42006;SDS011;27696;42.704;23.304;2023-03-13T04:06:39;17.42;;;9.73;;
42006;SDS011;27696;42.704;23.304;2023-03-13T04:09:04;11.73;;;8.85;;
42006;SDS011;27696;42.704;23.304;2023-03-13T04:11:29;14.68;;;9.50;;
42006;SDS011;27696;42.704;23.304;2023-03-13T04:13:55;11.77;;;9.80;;
42006;SDS011;27696;42.704;23.304;2023-03-13T04:16:21;11.45;;;9.32;;
42006;SDS011;27696;42.704;23.304;2023-03-13T04:18:46;13.10;;;8.35;;
42006;SDS011;27696;42.704;23.304;2023-03-13T04:21:12;14.77;;;8.95;;
42006;SDS011;27696;42.704;23.304;2023-03-13T04:23:37;14.23;;;9.07;;
42006;SDS011;27696;42.704;23.304;2023-03-13T04:26:02;13.25;;;9.90;;
42006;SDS011;27696;42.704;23.304;2023-03-13T04:28:28;15.50;;;12.13;;
42006;SDS011;27696;42.704;23.304;2023-03-13T04:30:53;21.17;;;15.63;;
42006;SDS011;27696;42.704;23.304;2023-03-13T04:33:21;33.03;;;23.17;;
42006;SDS011;27696;42.704;23.304;2023-03-13T04:35:48;30.10;;;23.77;;
42006;SDS011;27696;42.704;23.304;2023-03-13T04:38:13;34.00;;;25.48;;
42006;SDS011;27696;42.704;23.304;2023-03-13T04:40:38;33.47;;;24.30;;
42006;SDS011;27696;42.704;23.304;2023-03-13T04:43:04;31.67;;;23.48;;
42006;SDS011;27696;42.704;23.304;2023-03-13T04:45:29;23.73;;;17.25;;
42006;SDS011;27696;42.704;23.304;2023-03-13T04:47:55;21.80;;;16.90;;
42006;SDS011;27696;42.704;23.304;2023-03-13T04:50:20;21.35;;;16.55;;
42006;SDS011;27696;42.704;23.304;2023-03-13T04:52:46;20.45;;;16.50;;
42006;SDS011;27696;42.704;23.304;2023-03-13T04:55:11;20.42;;;15.70;;
42006;SDS011;27696;42.704;23.304;2023-03-13T04:57:36;28.33;;;16.23;;
42006;SDS011;27696;42.704;23.304;2023-03-13T05:00:03;19.25;;;14.30;;
42006;SDS011;27696;42.704;23.304;2023-03-13T05:02:32;19.88;;;13.85;;
42006;SDS011;27696;42.704;23.304;2023-03-13T05:04:57;19.67;;;13.88;;
42006;SDS011;27696;42.704;23.304;2023-03-13T05:07:23;16.40;;;13.95;;
42006;SDS011;27696;42.704;23.304;2023-03-13T05:09:48;16.67;;;13.40;;
42006;SDS011;27696;42.704;23.304;2023-03-13T05:12:14;15.73;;;13.43;;
42006;SDS011;27696;42.704;23.304;2023-03-13T05:14:39;23.90;;;13.55;;
42006;SDS011;27696;42.704;23.304;2023-03-13T05:17:04;22.17;;;13.43;;
42006;SDS011;27696;42.704;23.304;2023-03-13T05:19:31;27.00;;;13.70;;
42006;SDS011;27696;42.704;23.304;2023-03-13T05:21:56;16.08;;;12.77;;
42006;SDS011;27696;42.704;23.304;2023-03-13T05:24:22;18.77;;;12.07;;
42006;SDS011;27696;42.704;23.304;2023-03-13T05:26:50;17.48;;;12.60;;
42006;SDS011;27696;42.704;23.304;2023-03-13T05:29:16;17.77;;;12.35;;
42006;SDS011;27696;42.704;23.304;2023-03-13T05:31:41;15.90;;;12.48;;
42006;SDS011;27696;42.704;23.304;2023-03-13T05:34:07;18.77;;;12.50;;
42006;SDS011;27696;42.704;23.304;2023-03-13T05:36:32;16.17;;;12.60;;
42006;SDS011;27696;42.704;23.304;2023-03-13T05:38:57;13.15;;;11.05;;
42006;SDS011;27696;42.704;23.304;2023-03-13T05:41:23;13.48;;;10.82;;
42006;SDS011;27696;42.704;23.304;2023-03-13T05:43:48;14.80;;;10.68;;
42006;SDS011;27696;42.704;23.304;2023-03-13T05:46:14;18.30;;;10.32;;
42006;SDS011;27696;42.704;23.304;2023-03-13T05:48:39;16.77;;;11.00;;
42006;SDS011;27696;42.704;23.304;2023-03-13T05:51:05;13.90;;;11.15;;
42006;SDS011;27696;42.704;23.304;2023-03-13T05:53:30;13.00;;;10.68;;
42006;SDS011;27696;42.704;23.304;2023-03-13T05:55:55;13.18;;;10.00;;
42006;SDS011;27696;42.704;23.304;2023-03-13T05:58:21;11.75;;;9.52;;
42006;SDS011;27696;42.704;23.304;2023-03-13T06:00:46;14.25;;;9.45;;
42006;SDS011;27696;42.704;23.304;2023-03-13T06:03:12;15.43;;;10.55;;
42006;SDS011;27696;42.704;23.304;2023-03-13T06:05:38;15.20;;;10.32;;
42006;SDS011;27696;42.704;23.304;2023-03-13T06:08:03;12.95;;;10.60;;
42006;SDS011;27696;42.704;23.304;2023-03-13T06:10:29;21.10;;;13.45;;
42006;SDS011;27696;42.704;23.304;2023-03-13T06:12:55;22.40;;;12.82;;
42006;SDS011;27696;42.704;23.304;2023-03-13T06:15:21;22.08;;;13.10;;
42006;SDS011;27696;42.704;23.304;2023-03-13T06:17:47;21.80;;;13.30;;
42006;SDS011;27696;42.704;23.304;2023-03-13T06:20:12;21.35;;;14.18;;
42006;SDS011;27696;42.704;23.304;2023-03-13T06:22:39;16.95;;;12.93;;
42006;SDS011;27696;42.704;23.304;2023-03-13T06:25:04;27.10;;;17.55;;
42006;SDS011;27696;42.704;23.304;2023-03-13T06:27:30;25.42;;;17.50;;
42006;SDS011;27696;42.704;23.304;2023-03-13T06:29:56;25.98;;;17.30;;
42006;SDS011;27696;42.704;23.304;2023-03-13T06:32:21;26.27;;;18.67;;
42006;SDS011;27696;42.704;23.304;2023-03-13T06:34:47;31.60;;;18.35;;
42006;SDS011;27696;42.704;23.304;2023-03-13T06:37:12;28.42;;;18.65;;
42006;SDS011;27696;42.704;23.304;2023-03-13T06:39:37;27.35;;;17.80;;
42006;SDS011;27696;42.704;23.304;2023-03-13T06:42:06;25.30;;;17.38;;
42006;SDS011;27696;42.704;23.304;2023-03-13T06:44:32;24.45;;;17.75;;
42006;SDS011;27696;42.704;23.304;2023-03-13T06:46:57;21.02;;;15.07;;
42006;SDS011;27696;42.704;23.304;2023-03-13T06:49:23;30.30;;;15.07;;
42006;SDS011;27696;42.704;23.304;2023-03-13T06:51:48;16.40;;;13.57;;
42006;SDS011;27696;42.704;23.304;2023-03-13T06:54:13;20.08;;;13.00;;
42006;SDS011;27696;42.704;23.304;2023-03-13T06:56:39;20.77;;;13.40;;
42006;SDS011;27696;42.704;23.304;2023-03-13T06:59:06;18.02;;;13.60;;
42006;SDS011;27696;42.704;23.304;2023-03-13T07:01:31;16.55;;;13.15;;
42006;SDS011;27696;42.704;23.304;2023-03-13T07:03:56;17.98;;;13.38;;
42006;SDS011;27696;42.704;23.304;2023-03-13T07:06:22;18.35;;;13.65;;
42006;SDS011;27696;42.704;23.304;2023-03-13T07:08:47;23.50;;;13.45;;
42006;SDS011;27696;42.704;23.304;2023-03-13T07:11:13;26.10;;;13.57;;
42006;SDS011;27696;42.704;23.304;2023-03-13T07:13:39;22.02;;;13.77;;
42006;SDS011;27696;42.704;23.304;2023-03-13T07:16:06;18.20;;;13.43;;
42006;SDS011;27696;42.704;23.304;2023-03-13T07:18:33;18.17;;;13.32;;
42006;SDS011;27696;42.704;23.304;2023-03-13T07:20:59;16.20;;;13.00;;
42006;SDS011;27696;42.704;23.304;2023-03-13T07:23:26;19.10;;;13.18;;
42006;SDS011;27696;42.704;23.304;2023-03-13T07:25:53;16.58;;;12.88;;
42006;SDS011;27696;42.704;23.304;2023-03-13T07:28:20;17.40;;;12.57;;
42006;SDS011;27696;42.704;23.304;2023-03-13T07:30:46;17.58;;;13.75;;
42006;SDS011;27696;42.704;23.304;2023-03-13T07:33:11;19.50;;;13.43;;
42006;SDS011;27696;42.704;23.304;2023-03-13T07:35:37;17.88;;;13.63;;
42006;SDS011;27696;42.704;23.304;2023-03-13T07:38:02;16.90;;;13.02;;
42006;SDS011;27696;42.704;23.304;2023-03-13T07:40:28;18.35;;;13.10;;
42006;SDS011;27696;42.704;23.304;2023-03-13T07:42:53;17.98;;;13.05;;
42006;SDS011;27696;42.704;23.304;2023-03-13T07:45:19;22.88;;;14.23;;
42006;SDS011;27696;42.704;23.304;2023-03-13T07:47:44;18.42;;;14.00;;
42006;SDS011;27696;42.704;23.304;2023-03-13T07:50:09;17.60;;;12.82;;
42006;SDS011;27696;42.704;23.304;2023-03-13T07:52:35;18.00;;;13.68;;
42006;SDS011;27696;42.704;23.304;2023-03-13T07:55:00;19.23;;;14.00;;
42006;SDS011;27696;42.704;23.304;2023-03-13T07:57:26;19.75;;;13.50;;
42006;SDS011;27696;42.704;23.304;2023-03-13T07:59:51;23.58;;;13.50;;
42006;SDS011;27696;42.704;23.304;2023-03-13T08:02:17;19.40;;;14.63;;
42006;SDS011;27696;42.704;23.304;2023-03-13T08:04:42;18.27;;;13.93;;
42006;SDS011;27696;42.704;23.304;2023-03-13T08:07:08;17.83;;;13.40;;
42006;SDS011;27696;42.704;23.304;2023-03-13T08:09:34;17.80;;;13.57;;
42006;SDS011;27696;42.704;23.304;2023-03-13T08:11:59;17.42;;;13.98;;
42006;SDS011;27696;42.704;23.304;2023-03-13T08:14:25;22.55;;;13.60;;
42006;SDS011;27696;42.704;23.304;2023-03-13T08:16:50;21.60;;;13.57;;
42006;SDS011;27696;42.704;23.304;2023-03-13T08:19:16;21.90;;;13.88;;
42006;SDS011;27696;42.704;23.304;2023-03-13T08:21:41;15.20;;;12.63;;
42006;SDS011;27696;42.704;23.304;2023-03-13T08:24:07;20.48;;;13.38;;
42006;SDS011;27696;42.704;23.304;2023-03-13T08:26:33;20.25;;;14.02;;
42006;SDS011;27696;42.704;23.304;2023-03-13T08:29:00;18.83;;;13.02;;
42006;SDS011;27696;42.704;23.304;2023-03-13T08:31:29;21.67;;;13.07;;
42006;SDS011;27696;42.704;23.304;2023-03-13T08:34:00;17.33;;;12.98;;
42006;SDS011;27696;42.704;23.304;2023-03-13T08:36:30;20.77;;;13.85;;
42006;SDS011;27696;42.704;23.304;2023-03-13T08:38:58;16.33;;;12.48;;
42006;SDS011;27696;42.704;23.304;2023-03-13T08:41:25;17.45;;;12.48;;
42006;SDS011;27696;42.704;23.304;2023-03-13T08:43:53;16.70;;;13.20;;
42006;SDS011;27696;42.704;23.304;2023-03-13T08:46:22;16.27;;;12.98;;
42006;SDS011;27696;42.704;23.304;2023-03-13T08:48:48;24.38;;;13.40;;
42006;SDS011;27696;42.704;23.304;2023-03-13T08:51:17;16.42;;;13.30;;
42006;SDS011;27696;42.704;23.304;2023-03-13T08:53:43;28.20;;;13.40;;
42006;SDS011;27696;42.704;23.304;2023-03-13T08:56:09;15.77;;;12.32;;
42006;SDS011;27696;42.704;23.304;2023-03-13T08:58:36;14.13;;;12.45;;
42006;SDS011;27696;42.704;23.304;2023-03-13T09:01:06;16.10;;;12.82;;
42006;SDS011;27696;42.704;23.304;2023-03-13T09:03:33;19.63;;;12.90;;
42006;SDS011;27696;42.704;23.304;2023-03-13T09:05:59;19.27;;;13.18;;
42006;SDS011;27696;42.704;23.304;2023-03-13T09:08:24;16.75;;;12.73;;
42006;SDS011;27696;42.704;23.304;2023-03-13T09:10:57;15.93;;;11.95;;
42006;SDS011;27696;42.704;23.304;2023-03-13T09:13:28;15.60;;;12.30;;
42006;SDS011;27696;42.704;23.304;2023-03-13T09:16:00;14.50;;;12.75;;
42006;SDS011;27696;42.704;23.304;2023-03-13T09:18:30;16.23;;;12.73;;
42006;SDS011;27696;42.704;23.304;2023-03-13T09:20:57;17.98;;;12.60;;
42006;SDS011;27696;42.704;23.304;2023-03-13T09:23:22;16.48;;;12.85;;
42006;SDS011;27696;42.704;23.304;2023-03-13T09:25:50;15.90;;;12.75;;
42006;SDS011;27696;42.704;23.304;2023-03-13T09:28:17;19.80;;;12.13;;
42006;SDS011;27696;42.704;23.304;2023-03-13T09:30:43;18.33;;;12.18;;
42006;SDS011;27696;42.704;23.304;2023-03-13T09:33:08;23.70;;;13.52;;
42006;SDS011;27696;42.704;23.304;2023-03-13T09:35:34;24.35;;;16.23;;
42006;SDS011;27696;42.704;23.304;2023-03-13T09:38:02;16.42;;;12.38;;
42006;SDS011;27696;42.704;23.304;2023-03-13T09:40:28;18.63;;;12.68;;
42006;SDS011;27696;42.704;23.304;2023-03-13T09:42:58;16.05;;;12.90;;
42006;SDS011;27696;42.704;23.304;2023-03-13T09:45:40;16.45;;;12.57;;
42006;SDS011;27696;42.704;23.304;2023-03-13T09:48:49;13.48;;;12.02;;
42006;SDS011;27696;42.704;23.304;2023-03-13T09:51:05;14.32;;;11.52;;
42006;SDS011;27696;42.704;23.304;2023-03-13T09:53:41;14.93;;;11.85;;
42006;SDS011;27696;42.704;23.304;2023-03-13T09:56:16;18.92;;;14.05;;
42006;SDS011;27696;42.704;23.304;2023-03-13T09:58:54;12.80;;;11.43;;
42006;SDS011;27696;42.704;23.304;2023-03-13T10:01:23;15.55;;;12.18;;
42006;SDS011;27696;42.704;23.304;2023-03-13T10:03:54;13.23;;;11.55;;
42006;SDS011;27696;42.704;23.304;2023-03-13T10:06:41;13.93;;;11.43;;
42006;SDS011;27696;42.704;23.304;2023-03-13T10:09:21;14.40;;;12.43;;
42006;SDS011;27696;42.704;23.304;2023-03-13T10:12:01;16.30;;;12.48;;
42006;SDS011;27696;42.704;23.304;2023-03-13T10:20:46;17.42;;;13.82;;
42006;SDS011;27696;42.704;23.304;2023-03-13T10:22:59;15.88;;;13.07;;
42006;SDS011;27696;42.704;23.304;2023-03-13T10:25:45;13.48;;;12.05;;
42006;SDS011;27696;42.704;23.304;2023-03-13T10:28:15;14.23;;;12.07;;
42006;SDS011;27696;42.704;23.304;2023-03-13T10:30:46;14.85;;;11.85;;
42006;SDS011;27696;42.704;23.304;2023-03-13T10:33:23;14.85;;;12.18;;
42006;SDS011;27696;42.704;23.304;2023-03-13T10:36:00;14.20;;;12.30;;
42006;SDS011;27696;42.704;23.304;2023-03-13T10:38:32;15.20;;;12.52;;
42006;SDS011;27696;42.704;23.304;2023-03-13T10:41:00;16.05;;;12.45;;
42006;SDS011;27696;42.704;23.304;2023-03-13T10:43:29;19.88;;;13.45;;
42006;SDS011;27696;42.704;23.304;2023-03-13T10:45:54;18.17;;;13.45;;
42006;SDS011;27696;42.704;23.304;2023-03-13T10:48:24;15.77;;;13.48;;
42006;SDS011;27696;42.704;23.304;2023-03-13T10:50:52;21.20;;;13.43;;
42006;SDS011;27696;42.704;23.304;2023-03-13T10:53:30;15.00;;;13.07;;
42006;SDS011;27696;42.704;23.304;2023-03-13T10:56:11;18.75;;;14.05;;
42006;SDS011;27696;42.704;23.304;2023-03-13T11:01:28;15.45;;;12.80;;
42006;SDS011;27696;42.704;23.304;2023-03-13T11:03:57;14.75;;;13.00;;
42006;SDS011;27696;42.704;23.304;2023-03-13T11:06:29;15.73;;;13.93;;
42006;SDS011;27696;42.704;23.304;2023-03-13T11:11:29;16.40;;;13.15;;
42006;SDS011;27696;42.704;23.304;2023-03-13T11:14:08;16.58;;;13.73;;
42006;SDS011;27696;42.704;23.304;2023-03-13T11:16:38;17.33;;;13.57;;
42006;SDS011;27696;42.704;23.304;2023-03-13T11:24:19;16.75;;;13.68;;
42006;SDS011;27696;42.704;23.304;2023-03-13T11:32:01;19.02;;;15.23;;
42006;SDS011;27696;42.704;23.304;2023-03-13T11:34:49;20.20;;;14.07;;
42006;SDS011;27696;42.704;23.304;2023-03-13T11:37:17;17.50;;;14.10;;
42006;SDS011;27696;42.704;23.304;2023-03-13T11:39:49;18.58;;;14.40;;
42006;SDS011;27696;42.704;23.304;2023-03-13T11:42:34;17.70;;;14.45;;
42006;SDS011;27696;42.704;23.304;2023-03-13T11:45:15;17.05;;;13.85;;
42006;SDS011;27696;42.704;23.304;2023-03-13T11:56:06;15.38;;;13.10;;
42006;SDS011;27696;42.704;23.304;2023-03-13T12:01:23;19.23;;;13.27;;
42006;SDS011;27696;42.704;23.304;2023-03-13T12:03:58;16.13;;;12.98;;
42006;SDS011;27696;42.704;23.304;2023-03-13T12:06:33;14.45;;;12.75;;
42006;SDS011;27696;42.704;23.304;2023-03-13T12:09:02;14.95;;;12.85;;
42006;SDS011;27696;42.704;23.304;2023-03-13T12:11:36;14.30;;;12.73;;
42006;SDS011;27696;42.704;23.304;2023-03-13T12:17:34;14.55;;;12.40;;
42006;SDS011;27696;42.704;23.304;2023-03-13T12:20:04;16.25;;;13.75;;
42006;SDS011;27696;42.704;23.304;2023-03-13T12:25:27;16.48;;;14.05;;
42006;SDS011;27696;42.704;23.304;2023-03-13T12:28:49;18.92;;;14.10;;
42006;SDS011;27696;42.704;23.304;2023-03-13T12:34:01;16.45;;;13.60;;
42006;SDS011;27696;42.704;23.304;2023-03-13T12:36:45;18.00;;;14.45;;
42006;SDS011;27696;42.704;23.304;2023-03-13T12:42:32;18.17;;;14.65;;
42006;SDS011;27696;42.704;23.304;2023-03-13T12:45:05;20.08;;;15.07;;
42006;SDS011;27696;42.704;23.304;2023-03-13T12:52:48;20.98;;;13.60;;
42006;SDS011;27696;42.704;23.304;2023-03-13T13:00:14;19.38;;;13.48;;
42006;SDS011;27696;42.704;23.304;2023-03-13T13:05:16;19.95;;;15.90;;
42006;SDS011;27696;42.704;23.304;2023-03-13T13:07:44;20.05;;;13.05;;
42006;SDS011;27696;42.704;23.304;2023-03-13T13:10:19;14.80;;;12.18;;
42006;SDS011;27696;42.704;23.304;2023-03-13T13:13:15;14.65;;;11.65;;
42006;SDS011;27696;42.704;23.304;2023-03-13T13:15:57;17.25;;;11.93;;
42006;SDS011;27696;42.704;23.304;2023-03-13T13:18:28;12.98;;;11.35;;
42006;SDS011;27696;42.704;23.304;2023-03-13T13:23:39;14.40;;;11.75;;
42006;SDS011;27696;42.704;23.304;2023-03-13T13:35:17;14.88;;;11.00;;
42006;SDS011;27696;42.704;23.304;2023-03-13T13:39:47;13.23;;;11.25;;
42006;SDS011;27696;42.704;23.304;2023-03-13T13:45:40;14.40;;;10.63;;
42006;SDS011;27696;42.704;23.304;2023-03-13T13:47:44;14.77;;;10.73;;
42006;SDS011;27696;42.704;23.304;2023-03-13T13:50:24;16.42;;;11.32;;
42006;SDS011;27696;42.704;23.304;2023-03-13T13:52:50;13.85;;;10.63;;
42006;SDS011;27696;42.704;23.304;2023-03-13T13:58:13;16.30;;;10.98;;
42006;SDS011;27696;42.704;23.304;2023-03-13T14:00:50;18.25;;;11.75;;
42006;SDS011;27696;42.704;23.304;2023-03-13T14:03:24;15.23;;;12.38;;
42006;SDS011;27696;42.704;23.304;2023-03-13T14:05:55;13.10;;;11.13;;
42006;SDS011;27696;42.704;23.304;2023-03-13T14:08:26;16.55;;;11.80;;
42006;SDS011;27696;42.704;23.304;2023-03-13T14:16:38;14.45;;;11.48;;
42006;SDS011;27696;42.704;23.304;2023-03-13T14:19:20;18.23;;;11.05;;
42006;SDS011;27696;42.704;23.304;2023-03-13T14:22:00;12.38;;;9.93;;
42006;SDS011;27696;42.704;23.304;2023-03-13T14:24:31;13.30;;;9.70;;
42006;SDS011;27696;42.704;23.304;2023-03-13T14:26:57;14.90;;;10.35;;
42006;SDS011;27696;42.704;23.304;2023-03-13T14:29:23;13.50;;;9.40;;
42006;SDS011;27696;42.704;23.304;2023-03-13T14:31:52;18.10;;;9.30;;
42006;SDS011;27696;42.704;23.304;2023-03-13T14:34:19;15.30;;;9.38;;
42006;SDS011;27696;42.704;23.304;2023-03-13T14:36:46;14.52;;;9.20;;
42006;SDS011;27696;42.704;23.304;2023-03-13T14:39:16;13.13;;;9.60;;
42006;SDS011;27696;42.704;23.304;2023-03-13T14:41:44;13.55;;;9.85;;
42006;SDS011;27696;42.704;23.304;2023-03-13T14:46:59;12.30;;;8.93;;
42006;SDS011;27696;42.704;23.304;2023-03-13T14:49:29;14.13;;;9.55;;
42006;SDS011;27696;42.704;23.304;2023-03-13T14:54:54;12.98;;;8.85;;
42006;SDS011;27696;42.704;23.304;2023-03-13T14:57:28;12.77;;;9.40;;
42006;SDS011;27696;42.704;23.304;2023-03-13T14:59:58;10.45;;;9.43;;
42006;SDS011;27696;42.704;23.304;2023-03-13T15:02:50;10.55;;;9.45;;
42006;SDS011;27696;42.704;23.304;2023-03-13T15:05:29;13.13;;;8.68;;
42006;SDS011;27696;42.704;23.304;2023-03-13T15:07:55;16.33;;;9.63;;
42006;SDS011;27696;42.704;23.304;2023-03-13T15:10:31;13.98;;;9.18;;
42006;SDS011;27696;42.704;23.304;2023-03-13T15:12:57;10.88;;;8.95;;
42006;SDS011;27696;42.704;23.304;2023-03-13T15:15:23;12.98;;;8.95;;
42006;SDS011;27696;42.704;23.304;2023-03-13T15:17:48;20.20;;;9.85;;
42006;SDS011;27696;42.704;23.304;2023-03-13T15:20:14;22.50;;;10.35;;
42006;SDS011;27696;42.704;23.304;2023-03-13T15:22:41;17.58;;;9.52;;
42006;SDS011;27696;42.704;23.304;2023-03-13T15:25:13;12.43;;;9.30;;
42006;SDS011;27696;42.704;23.304;2023-03-13T15:30:12;10.93;;;9.32;;
42006;SDS011;27696;42.704;23.304;2023-03-13T15:32:39;11.85;;;8.75;;
42006;SDS011;27696;42.704;23.304;2023-03-13T15:35:27;11.95;;;8.32;;
42006;SDS011;27696;42.704;23.304;2023-03-13T15:37:59;12.93;;;10.20;;
42006;SDS011;27696;42.704;23.304;2023-03-13T15:40:25;12.80;;;9.75;;
42006;SDS011;27696;42.704;23.304;2023-03-13T15:42:52;13.52;;;8.98;;
42006;SDS011;27696;42.704;23.304;2023-03-13T15:45:18;13.95;;;8.82;;
42006;SDS011;27696;42.704;23.304;2023-03-13T15:47:44;12.70;;;8.77;;
42006;SDS011;27696;42.704;23.304;2023-03-13T15:50:17;12.70;;;8.38;;
42006;SDS011;27696;42.704;23.304;2023-03-13T15:52:44;10.70;;;8.63;;
42006;SDS011;27696;42.704;23.304;2023-03-13T15:55:10;14.55;;;9.23;;
42006;SDS011;27696;42.704;23.304;2023-03-13T15:57:37;10.45;;;9.00;;
42006;SDS011;27696;42.704;23.304;2023-03-13T16:00:17;16.27;;;9.35;;
42006;SDS011;27696;42.704;23.304;2023-03-13T16:02:45;11.73;;;9.15;;